Terminal Aerodrome Forecast
Issued by NWS

Home | Current Version | Previous Version | Text Only | Print | Product List | Glossary On
Versions: 1 2 3 4 5 6 7 8 9 10 11 12 13 14 15 16
000
FTUS41 KPHI 250012 AAA
TAFMIV
TAF AMD
KMIV 250012Z 2500/2524 16005KT P6SM BKN005
     FM250400 18003KT 4SM BR BKN004
     FM250700 15004KT 2SM BR OVC004
     FM251400 17007KT 5SM BR BKN010
     FM251600 18010G18KT 6SM BR BKN020
      TEMPO 2521/2523 30017G27KT 5SM SHRA OVC020
     FM252300 27012KT P6SM VCSH OVC050=

USA.gov is the U.S. government's official web portal to all federal, state and local government web resources and services.